createdAt,value
2022-11-03T00:02:59.125Z,100743.91
2022-11-03T00:08:28.749Z,100756.44
2022-11-03T00:13:58.230Z,100751.44
2022-11-03T00:19:24.177Z,100752.66
2022-11-03T00:24:51.266Z,100770.69
2022-11-03T00:30:20.465Z,100766.69
2022-11-03T00:35:46.697Z,100765.78
2022-11-03T00:41:11.046Z,100764.13
2022-11-03T00:46:40.364Z,100767.00
2022-11-03T00:52:05.587Z,100779.97
2022-11-03T00:57:29.933Z,100783.06
2022-11-03T01:02:54.665Z,100787.81
2022-11-03T01:08:26.620Z,100797.97
2022-11-03T01:13:56.718Z,100793.28
2022-11-03T01:19:20.852Z,100794.88
2022-11-03T01:24:46.029Z,100789.78
2022-11-03T01:30:10.232Z,100784.59
2022-11-03T01:35:35.232Z,100788.13
2022-11-03T01:41:04.863Z,100787.81
2022-11-03T01:46:30.363Z,100792.47
2022-11-03T01:51:58.077Z,100806.75
2022-11-03T01:57:28.381Z,100812.63
2022-11-03T02:02:57.634Z,100813.28
2022-11-03T02:08:30.135Z,100816.03
2022-11-03T02:14:00.675Z,100822.44
2022-11-03T02:19:36.861Z,100822.59
2022-11-03T02:25:16.823Z,100832.16
2022-11-03T02:30:46.419Z,100828.47
2022-11-03T02:36:16.818Z,100844.59
2022-11-03T02:41:43.011Z,100850.00
2022-11-03T02:47:11.039Z,100841.13
2022-11-03T02:52:38.948Z,100843.94
2022-11-03T02:58:12.871Z,100858.41
2022-11-03T03:03:43.386Z,100848.03
2022-11-03T03:09:14.125Z,100848.69
2022-11-03T03:14:41.854Z,100836.28
2022-11-03T03:20:15.723Z,100847.34
2022-11-03T03:25:44.471Z,100849.34
2022-11-03T03:31:12.104Z,100852.88
2022-11-03T03:36:42.050Z,100863.47
2022-11-03T03:42:10.359Z,100869.53
2022-11-03T03:47:37.008Z,100879.31
2022-11-03T03:53:04.176Z,100880.34
2022-11-03T03:58:29.300Z,100878.16
2022-11-03T04:03:53.405Z,100883.72
2022-11-03T04:09:18.925Z,100883.38
2022-11-03T04:15:00.568Z,100881.84
2022-11-03T04:20:45.324Z,100873.59
2022-11-03T04:26:15.202Z,100869.22
2022-11-03T04:31:38.967Z,100879.16
2022-11-03T04:37:02.940Z,100880.13
2022-11-03T04:42:33.477Z,100880.28
2022-11-03T04:48:00.844Z,100880.63
2022-11-03T04:53:31.597Z,100880.63
2022-11-03T04:58:59.508Z,100888.28
2022-11-03T05:04:24.153Z,100896.34
2022-11-03T05:09:48.402Z,100892.28
2022-11-03T05:15:31.279Z,100910.94
2022-11-03T05:21:03.907Z,100920.53
2022-11-03T05:26:34.043Z,100923.72
2022-11-03T05:32:01.093Z,100923.91
2022-11-03T05:37:28.123Z,100931.84
2022-11-03T05:42:54.814Z,100941.28
2022-11-03T05:48:30.884Z,100943.72
2022-11-03T05:53:59.045Z,100949.38
2022-11-03T05:59:28.098Z,100947.28
2022-11-03T06:04:53.617Z,100946.00
2022-11-03T06:10:25.054Z,100955.59
2022-11-03T06:15:52.108Z,100952.16
2022-11-03T06:21:23.546Z,100958.59
2022-11-03T06:26:50.926Z,100971.38
2022-11-03T06:32:14.951Z,100970.81
2022-11-03T06:37:40.352Z,100977.63
2022-11-03T06:43:17.886Z,100986.94
2022-11-03T06:48:42.589Z,100966.72
2022-11-03T06:54:12.484Z,100969.16
2022-11-03T06:59:41.708Z,100959.91
2022-11-03T07:05:21.792Z,100961.53
2022-11-03T07:10:59.244Z,100964.56
2022-11-03T07:16:31.319Z,100971.53
2022-11-03T07:22:02.157Z,100950.88
2022-11-03T07:27:37.057Z,100951.56
2022-11-03T07:33:15.492Z,100960.41
2022-11-03T07:38:46.106Z,100950.13
2022-11-03T07:44:21.132Z,100950.13
2022-11-03T07:49:50.564Z,100953.56
2022-11-03T07:55:19.832Z,100956.69
2022-11-03T08:00:49.980Z,100951.03
2022-11-03T08:06:20.108Z,100959.16
2022-11-03T08:11:49.612Z,100952.19
2022-11-03T08:17:20.000Z,100957.41
2022-11-03T08:23:05.024Z,100940.75
2022-11-03T08:28:38.699Z,100935.44
2022-11-03T08:34:09.012Z,100943.34
2022-11-03T08:39:38.258Z,100953.56
2022-11-03T08:45:08.825Z,100939.13
2022-11-03T08:50:40.644Z,100935.13
2022-11-03T08:56:12.267Z,100929.66
2022-11-03T09:01:42.519Z,100928.53
2022-11-03T09:07:12.797Z,100938.91
2022-11-03T09:12:41.577Z,100955.28
2022-11-03T09:18:10.978Z,100942.25
2022-11-03T09:23:41.987Z,100944.22
2022-11-03T09:29:11.809Z,100941.75
2022-11-03T09:34:40.379Z,100940.06
2022-11-03T09:40:13.172Z,100930.94
2022-11-03T09:45:42.181Z,100934.03
2022-11-03T09:51:15.308Z,100921.28
2022-11-03T09:56:47.229Z,100923.47
2022-11-03T10:02:22.914Z,100916.72
2022-11-03T10:13:30.401Z,100899.81
2022-11-03T10:19:01.196Z,100893.78
2022-11-03T10:24:30.094Z,100899.19
2022-11-03T10:30:09.516Z,100897.53
2022-11-03T10:35:38.239Z,100898.84
2022-11-03T10:41:15.460Z,100885.16
2022-11-03T10:46:57.900Z,100872.22
2022-11-03T10:52:29.858Z,100850.25
2022-11-03T10:57:59.873Z,100847.16
2022-11-03T11:03:30.715Z,100838.00
2022-11-03T14:40:30.827Z,100786.25
2022-11-03T14:45:59.899Z,100788.72
2022-11-03T14:51:28.796Z,100788.94
2022-11-03T14:56:59.280Z,100794.75
2022-11-03T15:02:31.579Z,100798.88
2022-11-03T15:08:00.600Z,100792.38
2022-11-03T15:13:31.290Z,100796.94
2022-11-03T15:19:03.626Z,100798.28
2022-11-03T15:30:22.987Z,100804.03
2022-11-03T15:35:51.935Z,100800.31
2022-11-03T15:41:22.091Z,100784.91
2022-11-03T15:46:56.170Z,100795.00
2022-11-03T15:52:24.812Z,100804.03
2022-11-03T15:57:53.862Z,100797.78
2022-11-03T16:03:24.372Z,100783.34
2022-11-03T16:08:53.526Z,100796.03
2022-11-03T16:14:22.861Z,100797.38
2022-11-03T16:19:53.102Z,100789.91
2022-11-03T16:25:21.669Z,100806.97
2022-11-03T16:30:54.232Z,100801.88
2022-11-03T16:36:25.547Z,100786.44
2022-11-03T16:41:55.809Z,100776.03
2022-11-03T16:47:27.043Z,100772.38
2022-11-03T16:52:58.710Z,100770.53
2022-11-03T16:58:30.169Z,100773.22
2022-11-03T17:03:58.962Z,100771.41
2022-11-03T17:09:30.672Z,100764.88
2022-11-03T17:15:00.294Z,100760.44
2022-11-03T17:20:29.635Z,100750.31
2022-11-03T17:26:02.547Z,100728.31
2022-11-03T17:31:33.511Z,100738.06
2022-11-03T17:37:02.943Z,100734.13
2022-11-03T17:42:33.792Z,100731.44
2022-11-03T17:48:04.014Z,100718.69
2022-11-03T17:53:35.078Z,100709.03
2022-11-03T17:59:08.536Z,100712.88
2022-11-03T18:04:37.792Z,100705.38
2022-11-03T18:10:09.951Z,100701.78
2022-11-03T18:15:44.075Z,100692.66
2022-11-03T18:21:15.919Z,100689.66
2022-11-03T18:26:45.176Z,100689.44
2022-11-03T18:32:18.286Z,100687.53
2022-11-03T18:37:48.240Z,100687.13
2022-11-03T18:43:21.011Z,100679.13
2022-11-03T18:48:51.277Z,100681.91
2022-11-03T18:54:23.322Z,100672.88
2022-11-03T18:59:53.486Z,100670.91
2022-11-03T19:05:24.553Z,100674.75
2022-11-03T19:10:54.539Z,100674.75
2022-11-03T19:16:26.959Z,100667.41
2022-11-03T19:21:56.911Z,100666.66
2022-11-03T19:27:28.793Z,100666.97
2022-11-03T19:32:59.468Z,100660.88
2022-11-03T19:38:29.759Z,100659.50
2022-11-03T19:43:58.603Z,100656.16
2022-11-03T19:49:27.703Z,100656.59
2022-11-03T19:54:59.232Z,100651.63
2022-11-03T20:00:23.404Z,100646.19
2022-11-03T20:05:50.030Z,100647.47
2022-11-03T20:11:23.527Z,100656.59
2022-11-03T20:16:47.688Z,100666.19
2022-11-03T20:22:17.030Z,100663.59
2022-11-03T20:27:47.203Z,100663.97
2022-11-03T20:33:16.066Z,100662.06
2022-11-03T20:38:39.703Z,100670.03
2022-11-03T22:41:20.489Z,100653.69
2022-11-03T22:46:50.528Z,100651.47
2022-11-03T22:52:18.882Z,100648.03
2022-11-03T22:57:49.467Z,100651.63
2022-11-03T23:03:18.402Z,100666.66
2022-11-03T23:08:44.812Z,100659.22
2022-11-03T23:14:14.541Z,100666.31
2022-11-03T23:20:09.821Z,100676.72
2022-11-03T23:25:40.309Z,100689.97
2022-11-03T23:31:07.278Z,100692.78
2022-11-03T23:36:36.394Z,100687.91
2022-11-03T23:42:00.627Z,100692.47
2022-11-03T23:47:44.531Z,100694.91
2022-11-03T23:53:13.518Z,100701.34
2022-11-03T23:58:40.501Z,100695.13
